Time;durP1;ratioP1;P1;durP2;ratioP2;P2;SDS_P1;SDS_P2;PMS_P1;PMS_P2;Temp;Humidity;BMP_temperature;BMP_pressure;BME280_temperature;BME280_humidity;BME280_pressure;Samples;Min_cycle;Max_cycle;Signal;HPM_P1;HPM_P2
2020/12/18 00:01:01;;;;;;;74.30;11.60;;;;;;;1.82;81.59;97253.94;5051074;28;20124;-68
2020/12/18 00:03:27;;;;;;;37.75;10.68;;;;;;;1.78;81.75;97249.31;5051730;28;20082;-66
2020/12/18 00:05:53;;;;;;;56.05;10.20;;;;;;;1.74;81.65;97251.63;5051736;28;20075;-66
2020/12/18 00:08:20;;;;;;;42.10;10.38;;;;;;;1.74;82.22;97235.53;5051206;28;20064;-66
2020/12/18 00:10:46;;;;;;;43.85;9.35;;;;;;;1.74;82.55;97235.53;5051573;28;20076;-66
2020/12/18 00:13:12;;;;;;;50.33;9.82;;;;;;;1.78;82.29;97252.00;5050887;28;20500;-66
2020/12/18 00:15:38;;;;;;;54.83;10.20;;;;;;;1.75;82.16;97258.63;5051596;28;20064;-66
2020/12/18 00:18:04;;;;;;;58.78;9.60;;;;;;;1.74;82.05;97246.28;5050900;28;20385;-66
2020/12/18 00:20:30;;;;;;;72.70;10.63;;;;;;;1.76;82.00;97248.72;5052430;28;20080;-66
2020/12/18 00:22:56;;;;;;;57.03;10.52;;;;;;;1.74;81.76;97256.19;5051176;28;20574;-66
2020/12/18 00:25:23;;;;;;;33.20;8.15;;;;;;;1.72;81.48;97264.50;5050789;28;20045;-65
2020/12/18 00:27:49;;;;;;;47.63;9.85;;;;;;;1.70;81.48;97261.22;5051254;28;20103;-66
2020/12/18 00:30:15;;;;;;;75.32;11.43;;;;;;;1.68;81.59;97263.34;5050782;28;20045;-66
2020/12/18 00:32:42;;;;;;;76.13;9.90;;;;;;;1.69;81.48;97270.34;5051176;28;20045;-66
2020/12/18 00:35:10;;;;;;;39.97;9.25;;;;;;;1.71;81.58;97264.72;5050003;28;20044;-66
2020/12/18 00:37:36;;;;;;;59.83;9.32;;;;;;;1.72;81.43;97264.50;5050930;28;20106;-66
2020/12/18 00:40:03;;;;;;;41.50;7.97;;;;;;;1.77;81.64;97271.81;5050529;28;20048;-66
2020/12/18 00:42:30;;;;;;;59.95;9.95;;;;;;;1.74;81.44;97270.44;5050744;28;20049;-66
2020/12/18 00:44:56;;;;;;;26.83;8.27;;;;;;;1.74;81.52;97267.75;5050776;28;20049;-65
2020/12/18 00:47:22;;;;;;;42.70;7.82;;;;;;;1.74;81.52;97262.38;5050373;28;20052;-66
2020/12/18 00:49:48;;;;;;;42.75;8.15;;;;;;;1.68;81.61;97262.53;5051746;28;20045;-66
2020/12/18 00:52:14;;;;;;;52.20;8.23;;;;;;;1.68;81.75;97262.53;5050168;28;20071;-66
2020/12/18 00:54:40;;;;;;;49.17;8.82;;;;;;;1.68;81.54;97268.72;5050812;28;20045;-66
2020/12/18 00:57:06;;;;;;;41.47;9.23;;;;;;;1.71;81.59;97262.84;5050277;28;20598;-66
2020/12/18 00:59:33;;;;;;;51.72;9.25;;;;;;;1.75;81.78;97264.00;5050762;28;20083;-66
2020/12/18 01:02:00;;;;;;;52.88;9.00;;;;;;;1.78;81.64;97266.22;5050530;28;20075;-66
2020/12/18 01:04:27;;;;;;;45.78;8.80;;;;;;;1.79;81.71;97265.16;5050350;28;20037;-66
2020/12/18 01:06:53;;;;;;;90.38;11.25;;;;;;;1.80;81.27;97274.84;5050248;28;20106;-66
2020/12/18 01:09:20;;;;;;;37.95;8.90;;;;;;;1.81;81.01;97270.28;5050139;28;20094;-66
2020/12/18 01:11:46;;;;;;;36.47;8.88;;;;;;;1.83;81.18;97277.06;5050266;28;20393;-66
2020/12/18 01:14:12;;;;;;;48.88;11.38;;;;;;;1.85;81.20;97281.38;5050215;28;20187;-66
2020/12/18 01:16:39;;;;;;;63.67;10.18;;;;;;;1.85;81.28;97287.56;5050399;28;20052;-65
2020/12/18 01:19:05;;;;;;;44.15;9.70;;;;;;;1.85;81.35;97284.88;5050830;28;20045;-66
2020/12/18 01:21:31;;;;;;;33.15;9.65;;;;;;;1.84;81.41;97277.88;5050110;28;20071;-66
2020/12/18 01:23:57;;;;;;;34.28;9.65;;;;;;;1.82;81.39;97272.72;5050203;28;20567;-66
2020/12/18 01:26:23;;;;;;;37.05;9.57;;;;;;;1.79;81.36;97264.34;5049821;28;20338;-66
2020/12/18 01:28:49;;;;;;;36.75;9.45;;;;;;;1.71;81.24;97241.38;5050067;28;20079;-65
2020/12/18 01:31:15;;;;;;;37.17;9.50;;;;;;;1.65;82.06;97247.69;5049457;28;20049;-65
2020/12/18 01:33:42;;;;;;;32.03;9.45;;;;;;;1.59;81.86;97242.47;5050186;28;20048;-66
2020/12/18 01:36:08;;;;;;;42.20;10.23;;;;;;;1.54;82.10;97241.31;5049393;28;20056;-66
2020/12/18 01:38:35;;;;;;;46.83;10.98;;;;;;;1.53;81.92;97239.69;5050150;28;20064;-65
2020/12/18 01:41:01;;;;;;;36.30;9.65;;;;;;;1.51;81.96;97235.59;5049715;28;20049;-70
2020/12/18 01:43:26;;;;;;;41.05;9.60;;;;;;;1.46;81.86;97240.88;5049891;28;20045;-66
2020/12/18 01:45:53;;;;;;;28.77;8.27;;;;;;;1.40;81.77;97233.78;5049801;28;20156;-66
2020/12/18 01:48:19;;;;;;;35.33;8.32;;;;;;;1.42;81.97;97255.84;5049326;28;20049;-66
2020/12/18 01:50:46;;;;;;;41.03;8.80;;;;;;;1.46;81.57;97248.91;5050819;28;20459;-66
2020/12/18 01:53:13;;;;;;;32.72;7.95;;;;;;;1.43;81.12;97265.50;5049320;28;20107;-66
2020/12/18 01:55:39;;;;;;;28.80;7.60;;;;;;;1.38;81.00;97263.53;5049973;28;20092;-65
2020/12/18 01:58:05;;;;;;;30.58;7.88;;;;;;;1.37;81.15;97258.41;5049279;28;20037;-66
2020/12/18 02:00:32;;;;;;;33.75;7.70;;;;;;;1.32;80.66;97272.53;5049640;28;20056;-66
2020/12/18 02:02:58;;;;;;;28.95;7.00;;;;;;;1.26;80.71;97271.63;5049243;28;20053;-66
2020/12/18 02:05:24;;;;;;;35.75;8.18;;;;;;;1.25;81.01;97278.03;5049035;28;20041;-66
2020/12/18 02:08:02;;;;;;;26.17;7.20;;;;;;;1.26;81.45;97266.25;5049581;28;20492;-65
2020/12/18 02:10:28;;;;;;;29.40;7.10;;;;;;;1.26;81.76;97260.88;5049474;28;20040;-65
2020/12/18 02:12:54;;;;;;;31.40;7.43;;;;;;;1.28;81.86;97263.31;5049566;28;20048;-66
2020/12/18 02:15:21;;;;;;;23.85;6.90;;;;;;;1.26;81.85;97260.88;5049053;28;20041;-66
2020/12/18 02:17:48;;;;;;;27.23;7.25;;;;;;;1.30;81.93;97261.22;5049495;28;20049;-66
2020/12/18 02:20:15;;;;;;;39.55;7.15;;;;;;;1.32;81.92;97261.81;5050077;28;20060;-66
2020/12/18 02:22:41;;;;;;;26.30;6.70;;;;;;;1.34;81.74;97266.94;5049240;28;20052;-66
2020/12/18 02:25:10;;;;;;;25.90;7.38;;;;;;;1.34;81.74;97256.19;5048881;28;20103;-66
2020/12/18 02:27:37;;;;;;;34.72;7.00;;;;;;;1.38;81.78;97255.47;5049538;28;20095;-66
2020/12/18 02:30:04;;;;;;;32.05;7.30;;;;;;;1.42;81.82;97259.34;5048957;28;20049;-66
2020/12/18 02:32:30;;;;;;;25.73;6.43;;;;;;;1.42;81.22;97247.78;5049251;28;20048;-66
2020/12/18 02:34:56;;;;;;;22.45;5.90;;;;;;;1.41;81.39;97246.97;5049209;28;20587;-65
2020/12/18 02:37:22;;;;;;;20.45;6.00;;;;;;;1.40;81.16;97233.78;5048890;28;20041;-65
2020/12/18 02:39:48;;;;;;;21.05;6.47;;;;;;;1.41;81.17;97227.34;5049299;28;20076;-65
2020/12/18 02:42:14;;;;;;;25.00;6.40;;;;;;;1.40;81.16;97231.09;5048754;28;20444;-66
2020/12/18 02:44:41;;;;;;;27.98;6.70;;;;;;;1.42;81.11;97239.72;5049137;28;20504;-65
2020/12/18 02:47:07;;;;;;;21.00;5.95;;;;;;;1.41;81.20;97240.75;5048324;28;20048;-66
2020/12/18 02:49:33;;;;;;;20.02;6.07;;;;;;;1.42;80.97;97234.38;5050218;28;20060;-66
2020/12/18 02:52:00;;;;;;;21.63;6.10;;;;;;;1.42;80.86;97231.69;5048341;28;20045;-65
2020/12/18 02:54:26;;;;;;;23.98;7.93;;;;;;;1.42;80.94;97224.44;5049017;28;20041;-65
2020/12/18 02:56:52;;;;;;;24.85;6.25;;;;;;;1.44;80.78;97229.56;5050166;28;20158;-65
2020/12/18 02:59:18;;;;;;;24.77;6.97;;;;;;;1.45;80.79;97220.44;5052462;28;20041;-65
2020/12/18 03:01:44;;;;;;;24.58;7.05;;;;;;;1.44;80.72;97218.84;5052911;28;20092;-65
2020/12/18 03:04:10;;;;;;;25.13;6.57;;;;;;;1.41;80.84;97221.97;5052386;28;20051;-66
2020/12/18 03:06:36;;;;;;;25.88;6.57;;;;;;;1.45;80.91;97231.19;5052914;28;20135;-66
2020/12/18 03:09:03;;;;;;;23.80;6.38;;;;;;;1.46;80.76;97227.44;5052486;28;20045;-66
2020/12/18 03:11:29;;;;;;;22.63;6.47;;;;;;;1.46;80.62;97227.44;5052769;28;20052;-65
2020/12/18 03:13:55;;;;;;;26.33;6.68;;;;;;;1.49;80.64;97227.78;5052691;28;20053;-66
2020/12/18 03:16:21;;;;;;;26.50;7.43;;;;;;;1.50;80.78;97225.91;5052117;28;20133;-66
2020/12/18 03:18:48;;;;;;;20.98;6.47;;;;;;;1.54;80.72;97230.56;5052666;28;20045;-65
2020/12/18 03:21:14;;;;;;;25.08;6.53;;;;;;;1.58;80.45;97236.28;5052992;28;20048;-66
2020/12/18 03:23:40;;;;;;;27.17;7.25;;;;;;;1.58;80.43;97240.84;5052539;28;20124;-66
2020/12/18 03:26:06;;;;;;;19.70;6.10;;;;;;;1.52;80.94;97231.88;5052032;28;20492;-66
2020/12/18 03:28:32;;;;;;;25.77;6.95;;;;;;;1.55;81.06;97236.75;5052428;28;20048;-66
2020/12/18 03:30:58;;;;;;;28.42;7.22;;;;;;;1.58;80.96;97230.13;5052453;28;20053;-66
2020/12/18 03:33:24;;;;;;;23.58;6.60;;;;;;;1.59;81.13;97226.38;5052003;28;20037;-65
2020/12/18 03:35:51;;;;;;;23.67;6.82;;;;;;;1.62;81.05;97213.28;5052385;28;20056;-66
2020/12/18 03:38:17;;;;;;;25.08;7.03;;;;;;;1.68;80.57;97219.56;5051684;28;20122;-66
2020/12/18 03:40:43;;;;;;;21.27;6.95;;;;;;;1.69;80.48;97222.00;5052442;28;20044;-65
2020/12/18 03:43:09;;;;;;;24.75;7.00;;;;;;;1.72;80.57;97226.91;5051508;28;20045;-66
2020/12/18 03:45:35;;;;;;;21.20;6.68;;;;;;;1.74;80.46;97219.41;5052115;28;20037;-66
2020/12/18 03:48:01;;;;;;;19.00;6.20;;;;;;;1.74;80.56;97214.03;5051624;28;20128;-66
2020/12/18 03:50:27;;;;;;;21.10;7.07;;;;;;;1.77;80.77;97218.91;5052881;28;20563;-65
2020/12/18 03:52:54;;;;;;;25.10;7.43;;;;;;;1.82;80.61;97227.06;5051960;28;20132;-66
2020/12/18 03:55:20;;;;;;;20.30;6.45;;;;;;;1.85;80.34;97224.97;5051542;28;20045;-65
2020/12/18 03:57:46;;;;;;;21.73;6.70;;;;;;;1.89;80.55;97236.88;5051956;28;20408;-65
2020/12/18 04:00:12;;;;;;;29.85;6.93;;;;;;;1.91;80.43;97240.94;5051433;28;20127;-66
2020/12/18 04:02:38;;;;;;;25.33;6.68;;;;;;;1.93;80.48;97251.44;5051800;28;20419;-66
2020/12/18 04:05:04;;;;;;;26.83;6.75;;;;;;;1.94;80.64;97239.66;5051360;28;20132;-66
2020/12/18 04:07:30;;;;;;;20.45;6.57;;;;;;;1.96;80.50;97243.72;5051514;28;20045;-66
2020/12/18 04:09:57;;;;;;;29.27;7.53;;;;;;;2.01;80.68;97241.13;5050585;28;20132;-65
2020/12/18 04:12:23;;;;;;;29.38;7.68;;;;;;;2.02;80.56;97236.56;5051000;28;20044;-66
2020/12/18 04:14:49;;;;;;;26.75;6.95;;;;;;;2.04;80.61;97234.47;5051600;28;20052;-66
2020/12/18 04:17:15;;;;;;;29.30;8.02;;;;;;;2.06;80.60;97233.16;5050896;28;20045;-66
2020/12/18 04:19:41;;;;;;;26.33;7.78;;;;;;;2.09;80.67;97248.00;5052352;28;20048;-66
2020/12/18 04:22:07;;;;;;;27.25;7.60;;;;;;;2.13;80.54;97237.56;5050902;28;20503;-66
2020/12/18 04:24:33;;;;;;;29.23;7.60;;;;;;;2.12;80.42;97236.75;5051232;28;20056;-66
2020/12/18 04:27:00;;;;;;;23.65;7.68;;;;;;;2.14;80.22;97240.03;5051147;28;20044;-66
2020/12/18 04:29:26;;;;;;;21.15;6.45;;;;;;;2.15;80.23;97243.53;5051216;28;20041;-66
2020/12/18 04:31:52;;;;;;;27.52;7.68;;;;;;;2.15;80.14;97256.94;5051245;28;20045;-66
2020/12/18 04:34:18;;;;;;;22.17;6.40;;;;;;;2.09;80.01;97259.56;5050784;28;20572;-66
2020/12/18 04:36:44;;;;;;;22.73;6.95;;;;;;;1.99;80.11;97261.25;5051281;28;20102;-66
2020/12/18 04:39:10;;;;;;;27.85;8.43;;;;;;;2.02;80.33;97241.94;5050521;28;20554;-66
2020/12/18 04:41:36;;;;;;;21.63;6.80;;;;;;;2.09;80.16;97242.63;5051211;28;20057;-66
2020/12/18 04:44:03;;;;;;;23.95;6.97;;;;;;;2.09;80.57;97245.31;5050575;28;20041;-66
2020/12/18 04:46:30;;;;;;;22.08;6.63;;;;;;;2.09;80.54;97237.25;5050862;28;20053;-66
2020/12/18 04:48:57;;;;;;;24.73;6.88;;;;;;;2.10;80.47;97238.88;5052179;28;20048;-66
2020/12/18 04:51:26;;;;;;;24.77;7.32;;;;;;;2.13;80.66;97238.38;5050311;28;20045;-66
2020/12/18 04:53:54;;;;;;;30.95;7.68;;;;;;;2.15;80.15;97235.47;5055775;28;20124;-65
2020/12/18 04:56:21;;;;;;;27.30;7.40;;;;;;;2.15;80.40;97238.97;5070209;28;20269;-66
2020/12/18 04:58:50;;;;;;;29.17;7.43;;;;;;;2.19;80.19;97248.13;5069605;28;20056;-66
2020/12/18 05:01:20;;;;;;;29.50;7.80;;;;;;;2.18;80.10;97245.69;5070062;28;20052;-66
2020/12/18 05:03:46;;;;;;;26.40;7.25;;;;;;;2.18;80.22;97241.13;5070226;28;20048;-66
2020/12/18 05:06:12;;;;;;;23.83;6.85;;;;;;;2.22;80.19;97234.22;5070200;28;20041;-66
2020/12/18 05:08:38;;;;;;;23.80;7.00;;;;;;;2.15;80.17;97225.53;5070543;28;20056;-66
2020/12/18 05:11:18;;;;;;;28.15;7.28;;;;;;;2.16;80.47;97237.88;5069949;28;20048;-66
2020/12/18 05:13:45;;;;;;;20.70;6.25;;;;;;;2.18;80.07;97240.31;5070599;28;20079;-66
2020/12/18 05:16:11;;;;;;;24.73;7.18;;;;;;;2.16;80.20;97243.25;5069899;28;20048;-66
2020/12/18 05:18:38;;;;;;;21.45;7.07;;;;;;;2.17;79.85;97250.25;5070217;28;20403;-66
2020/12/18 05:21:05;;;;;;;32.47;7.78;;;;;;;2.16;79.95;97245.13;5051967;28;20045;-66
2020/12/18 05:23:36;;;;;;;24.30;6.85;;;;;;;2.12;79.91;97244.81;5049844;28;20049;-66
2020/12/18 05:26:03;;;;;;;30.38;7.03;;;;;;;2.09;79.75;97248.00;5049708;28;20118;-66
2020/12/18 05:28:36;;;;;;;16.70;6.22;;;;;;;2.07;79.91;97247.41;5050219;28;20075;-65
2020/12/18 05:31:03;;;;;;;26.55;6.55;;;;;;;2.06;79.84;97254.66;5056637;28;20102;-66
2020/12/18 05:33:29;;;;;;;23.77;6.63;;;;;;;1.99;79.77;97258.56;5070145;28;20045;-66
2020/12/18 05:35:55;;;;;;;24.63;6.88;;;;;;;1.94;79.98;97248.53;5070020;28;20052;-66
2020/12/18 05:38:22;;;;;;;22.23;6.28;;;;;;;1.93;80.32;97254.13;5069687;28;20503;-65
2020/12/18 05:40:48;;;;;;;21.42;6.80;;;;;;;1.92;80.29;97247.94;5069994;28;20082;-66
2020/12/18 05:43:14;;;;;;;31.58;9.20;;;;;;;1.85;80.31;97258.03;5069454;28;20098;-66
2020/12/18 05:45:40;;;;;;;23.85;8.07;;;;;;;1.80;80.71;97265.97;5069756;28;20044;-65
2020/12/18 05:48:07;;;;;;;19.30;7.05;;;;;;;1.75;80.50;97264.00;5069543;28;20486;-66
2020/12/18 05:50:34;;;;;;;27.70;8.00;;;;;;;1.70;80.55;97261.22;5056770;28;20049;-66
2020/12/18 05:53:03;;;;;;;18.75;6.75;;;;;;;1.69;80.64;97266.84;5049857;28;20080;-65
2020/12/18 05:55:35;;;;;;;31.88;8.95;;;;;;;1.67;80.69;97276.97;5049625;28;20052;-66
2020/12/18 05:58:01;;;;;;;33.80;10.18;;;;;;;1.63;80.50;97284.72;5049507;28;20056;-69
2020/12/18 06:00:27;;;;;;;31.90;9.95;;;;;;;1.60;80.68;97274.44;5049789;28;20045;-66
2020/12/18 06:02:56;;;;;;;30.17;9.40;;;;;;;1.58;80.78;97263.13;5049792;28;20068;-66
2020/12/18 06:05:24;;;;;;;28.00;8.13;;;;;;;1.52;81.13;97264.09;5049327;28;20115;-66
2020/12/18 06:07:50;;;;;;;25.25;7.75;;;;;;;1.47;81.37;97255.94;5049758;28;20057;-66
2020/12/18 06:10:21;;;;;;;25.23;8.00;;;;;;;1.42;81.55;97261.22;5049336;28;20098;-66
2020/12/18 06:12:48;;;;;;;23.42;7.70;;;;;;;1.37;81.62;97261.09;5049741;28;20049;-66
2020/12/18 06:15:16;;;;;;;25.70;8.02;;;;;;;1.34;81.83;97262.38;5049021;28;20045;-66
2020/12/18 06:17:44;;;;;;;23.35;7.07;;;;;;;1.33;81.72;97270.66;5049429;28;20056;-66
2020/12/18 06:20:14;;;;;;;19.85;7.00;;;;;;;1.32;81.75;97271.72;5050042;28;20076;-65
2020/12/18 06:22:52;;;;;;;26.42;7.90;;;;;;;1.29;81.71;97275.69;5049323;28;20512;-66
2020/12/18 06:25:19;;;;;;;28.92;8.10;;;;;;;1.27;81.91;97275.94;5049202;28;20099;-65
2020/12/18 06:27:45;;;;;;;27.35;7.90;;;;;;;1.28;82.17;97280.22;5049429;28;20500;-65
2020/12/18 06:30:11;;;;;;;37.17;9.13;;;;;;;1.30;81.94;97283.53;5048869;28;20056;-65
2020/12/18 06:32:45;;;;;;;27.40;8.52;;;;;;;1.33;81.97;97281.41;5052023;28;20102;-66
2020/12/18 06:35:33;;;;;;;27.60;8.70;;;;;;;1.32;82.14;97279.78;5053074;28;20045;-66
2020/12/18 06:38:28;;;;;;;31.63;8.82;;;;;;;1.31;82.17;97276.28;5048446;28;20051;-65
2020/12/18 06:40:55;;;;;;;31.67;9.68;;;;;;;1.32;82.35;97274.41;5053400;28;20508;-65
2020/12/18 06:43:34;;;;;;;30.77;8.98;;;;;;;1.27;82.61;97278.63;5052892;28;20053;-67
2020/12/18 06:46:04;;;;;;;30.00;8.70;;;;;;;1.32;82.60;97277.09;5053409;28;20057;-67
2020/12/18 06:48:30;;;;;;;29.73;8.93;;;;;;;1.34;82.55;97272.28;5053030;28;20102;-66
2020/12/18 06:50:56;;;;;;;36.20;8.82;;;;;;;1.34;82.55;97278.47;5054305;28;20051;-67
2020/12/18 06:53:23;;;;;;;29.05;9.48;;;;;;;1.35;82.34;97268.56;5052725;28;20036;-67
2020/12/18 06:55:49;;;;;;;33.22;8.77;;;;;;;1.33;82.07;97273.34;5053190;28;20049;-67
2020/12/18 06:58:18;;;;;;;25.13;7.72;;;;;;;1.27;81.78;97272.44;5052812;28;20060;-67
2020/12/18 07:00:46;;;;;;;29.35;7.85;;;;;;;1.22;81.79;97273.13;5053253;28;20209;-67
2020/12/18 07:03:32;;;;;;;36.75;8.65;;;;;;;1.19;81.34;97276.28;5052481;28;20584;-67
2020/12/18 07:06:02;;;;;;;23.50;6.90;;;;;;;1.11;81.30;97279.34;5053081;28;20052;-65
2020/12/18 07:08:31;;;;;;;25.60;6.90;;;;;;;1.08;81.37;97285.16;5052717;28;20041;-67
2020/12/18 07:11:00;;;;;;;33.00;7.03;;;;;;;1.06;80.93;97287.28;5052946;28;20041;-67
2020/12/18 07:13:29;;;;;;;30.58;7.82;;;;;;;1.01;81.05;97287.16;5065941;28;20048;-67
2020/12/18 07:15:58;;;;;;;30.63;7.85;;;;;;;0.95;80.99;97285.41;5069750;28;20044;-66
2020/12/18 07:18:26;;;;;;;36.38;9.32;;;;;;;0.92;81.33;97286.69;5069004;28;20044;-65
2020/12/18 07:20:54;;;;;;;39.28;8.50;;;;;;;0.93;81.55;97276.78;5053719;28;20053;-66
2020/12/18 07:23:22;;;;;;;36.15;8.10;;;;;;;0.88;81.46;97290.06;5048773;28;20049;-66
2020/12/18 07:25:49;;;;;;;36.33;8.02;;;;;;;0.89;81.25;97289.00;5049345;28;20057;-66
2020/12/18 07:28:15;;;;;;;36.33;7.88;;;;;;;0.88;81.52;97290.88;5048930;28;20049;-65
2020/12/18 07:30:44;;;;;;;35.03;8.40;;;;;;;0.92;81.60;97297.41;5054505;28;20550;-65
2020/12/18 07:33:11;;;;;;;46.08;9.65;;;;;;;0.96;81.79;97300.44;5067990;28;20048;-66
2020/12/18 07:35:41;;;;;;;32.70;8.43;;;;;;;1.04;81.81;97295.56;5069410;28;20079;-65
2020/12/18 07:38:17;;;;;;;35.25;8.73;;;;;;;1.11;82.07;97295.44;5068741;28;20052;-66
2020/12/18 07:40:44;;;;;;;31.33;8.02;;;;;;;1.18;82.01;97301.47;5069218;28;20154;-66
2020/12/18 07:43:12;;;;;;;25.42;7.95;;;;;;;1.20;81.89;97299.41;5070807;28;20086;-65
2020/12/18 07:45:40;;;;;;;30.85;9.25;;;;;;;1.24;81.96;97294.34;5072077;28;20051;-65
2020/12/18 07:48:16;;;;;;;31.15;9.75;;;;;;;1.26;82.10;97287.72;5071817;28;20044;-66
2020/12/18 07:50:53;;;;;;;30.30;9.25;;;;;;;1.30;81.64;97288.88;5057675;28;20049;-65
2020/12/18 07:53:20;;;;;;;29.20;8.63;;;;;;;1.32;80.92;97285.97;5051232;28;20053;-78
2020/12/18 07:55:57;;;;;;;28.02;8.25;;;;;;;1.36;81.14;97294.34;5052121;28;20056;-66
2020/12/18 07:58:23;;;;;;;26.13;8.25;;;;;;;1.39;81.00;97291.19;5051553;28;20060;-66
2020/12/18 08:00:49;;;;;;;27.65;8.10;;;;;;;1.40;81.16;97284.75;5051978;28;20488;-66
2020/12/18 08:03:17;;;;;;;27.17;8.60;;;;;;;1.43;81.10;97282.44;5051344;28;20041;-66
2020/12/18 08:05:43;;;;;;;30.65;9.02;;;;;;;1.42;81.16;97277.31;5051620;28;20413;-66
2020/12/18 08:08:10;;;;;;;28.35;8.45;;;;;;;1.46;81.30;97281.13;5051249;28;20167;-69
2020/12/18 08:10:40;;;;;;;28.65;8.05;;;;;;;1.58;81.48;97283.81;5051738;28;20049;-67
2020/12/18 08:13:06;;;;;;;25.05;7.53;;;;;;;1.87;82.81;97276.56;5051159;28;20424;-67
2020/12/18 08:15:33;;;;;;;25.15;7.55;;;;;;;2.25;81.67;97274.06;5051807;28;20154;-67
2020/12/18 08:17:59;;;;;;;25.27;6.82;;;;;;;2.52;79.99;97274.25;5051533;28;20041;-67
2020/12/18 08:20:26;;;;;;;23.77;6.65;;;;;;;2.69;78.51;97268.06;5052075;28;20047;-67
2020/12/18 08:22:52;;;;;;;21.13;6.03;;;;;;;2.80;77.77;97276.03;5051596;28;20056;-67
2020/12/18 08:25:19;;;;;;;24.73;6.63;;;;;;;2.85;76.42;97269.91;5050714;28;20045;-68
2020/12/18 08:27:49;;;;;;;26.10;6.57;;;;;;;2.85;76.60;97268.03;5051504;28;20063;-68
2020/12/18 08:30:17;;;;;;;23.20;5.82;;;;;;;2.81;76.51;97276.84;5050799;28;20386;-67
2020/12/18 08:32:52;;;;;;;28.60;7.20;;;;;;;2.77;76.23;97268.47;5051426;28;20500;-67
2020/12/18 08:35:20;;;;;;;25.90;6.47;;;;;;;2.72;75.85;97268.38;5050897;28;20500;-67
2020/12/18 08:37:48;;;;;;;17.88;6.15;;;;;;;2.66;76.21;97263.97;5051264;28;20060;-68
2020/12/18 08:40:22;;;;;;;18.90;5.72;;;;;;;2.61;76.19;97261.22;5050824;28;20052;-67
2020/12/18 08:42:59;;;;;;;21.83;6.15;;;;;;;2.56;76.62;97263.84;5051139;28;20056;-68
2020/12/18 08:45:25;;;;;;;20.05;5.93;;;;;;;2.55;77.27;97262.19;5050681;28;20704;-68
2020/12/18 08:47:51;;;;;;;26.15;6.70;;;;;;;2.55;77.51;97254.94;5050975;28;20500;-68
2020/12/18 08:50:18;;;;;;;27.20;6.53;;;;;;;2.54;77.36;97255.19;5051304;28;20049;-69
2020/12/18 08:52:45;;;;;;;22.70;6.30;;;;;;;2.53;77.76;97253.56;5051084;28;20048;-68
2020/12/18 08:55:12;;;;;;;21.48;6.40;;;;;;;2.53;77.58;97256.25;5049659;28;20060;-67
2020/12/18 08:57:38;;;;;;;21.10;6.78;;;;;;;2.54;78.05;97260.56;5050908;28;20045;-69
2020/12/18 09:00:15;;;;;;;23.23;6.97;;;;;;;2.56;78.23;97258.47;5050497;28;20523;-68
2020/12/18 09:02:43;;;;;;;22.33;6.65;;;;;;;2.56;78.25;97259.28;5050808;28;20041;-67
2020/12/18 09:05:18;;;;;;;24.63;8.02;;;;;;;2.58;78.51;97267.88;5050121;28;20175;-67
2020/12/18 09:07:49;;;;;;;25.92;7.47;;;;;;;2.61;78.84;97266.59;5050577;28;20068;-67
2020/12/18 09:10:44;;;;;;;22.10;7.25;;;;;;;2.62;79.06;97281.66;5050166;28;20041;-67
2020/12/18 09:13:15;;;;;;;25.63;8.15;;;;;;;2.69;79.38;97273.44;5049997;28;20049;-67
2020/12/18 09:15:42;;;;;;;23.77;7.65;;;;;;;2.71;79.36;97276.69;5050674;28;20057;-67
2020/12/18 09:18:09;;;;;;;30.55;7.80;;;;;;;2.77;79.40;97276.53;5049815;28;20071;-67
2020/12/18 09:20:36;;;;;;;21.15;7.80;;;;;;;2.81;79.45;97283.03;5053287;28;20078;-68
2020/12/18 09:23:05;;;;;;;26.67;8.77;;;;;;;2.86;79.56;97290.38;5049723;28;20067;-67
2020/12/18 09:25:36;;;;;;;30.33;8.30;;;;;;;2.93;79.29;97282.16;5049960;28;20048;-67
2020/12/18 09:28:03;;;;;;;31.30;7.88;;;;;;;2.99;78.81;97278.47;5049579;28;20048;-70
2020/12/18 09:30:31;;;;;;;31.00;8.10;;;;;;;2.96;78.50;97279.75;5050079;28;20707;-66
2020/12/18 09:33:25;;;;;;;24.83;7.50;;;;;;;3.06;79.69;97281.78;5049146;28;20045;-68
2020/12/18 09:35:52;;;;;;;;;;;;;;;3.10;80.48;97266.78;5050419;28;20045;-69
2020/12/18 09:38:22;;;;;;;23.92;7.88;;;;;;;3.17;79.47;97280.06;5049302;28;20360;-69
2020/12/18 09:40:49;;;;;;;25.98;7.72;;;;;;;3.32;79.26;97270.31;5064900;28;20059;-66
2020/12/18 09:43:15;;;;;;;24.23;7.30;;;;;;;3.54;78.97;97264.94;5069133;28;20060;-67
2020/12/18 09:45:41;;;;;;;41.30;9.52;;;;;;;3.81;78.86;97259.63;5068231;28;20060;-66
2020/12/18 09:48:07;;;;;;;30.05;9.18;;;;;;;4.06;78.73;97260.94;5068840;28;20052;-66
2020/12/18 09:50:33;;;;;;;32.30;9.40;;;;;;;4.21;78.13;97255.72;5056701;28;20061;-66
2020/12/18 09:52:59;;;;;;;29.10;8.38;;;;;;;4.33;76.34;97259.06;5049636;28;20141;-66
2020/12/18 09:55:25;;;;;;;24.45;8.20;;;;;;;4.44;75.99;97258.09;5049232;28;20536;-66
2020/12/18 09:57:52;;;;;;;30.90;8.65;;;;;;;4.62;75.00;97258.78;5049540;28;20052;-66
2020/12/18 10:00:18;;;;;;;38.38;9.27;;;;;;;4.78;74.59;97257.81;5048511;28;20047;-66
2020/12/18 10:02:44;;;;;;;31.08;7.93;;;;;;;4.92;73.49;97250.91;5062351;28;20051;-66
2020/12/18 10:05:10;;;;;;;30.75;9.23;;;;;;;5.05;71.68;97246.94;5068775;28;20048;-67
2020/12/18 10:07:36;;;;;;;30.05;8.15;;;;;;;5.09;72.10;97242.63;5067578;28;20500;-67
2020/12/18 10:10:03;;;;;;;26.17;7.85;;;;;;;5.19;71.86;97247.28;5067975;28;20044;-66
2020/12/18 10:12:29;;;;;;;35.83;9.50;;;;;;;5.16;71.92;97240.50;5069178;28;20044;-66
2020/12/18 10:14:55;;;;;;;30.63;8.43;;;;;;;5.15;72.52;97238.06;5068953;28;20048;-66
2020/12/18 10:17:21;;;;;;;25.98;8.10;;;;;;;5.26;72.68;97233.53;5068607;28;20049;-67
2020/12/18 10:19:48;;;;;;;31.30;9.30;;;;;;;5.48;72.84;97235.03;5061065;28;20048;-67
2020/12/18 10:22:14;;;;;;;26.80;8.13;;;;;;;5.73;71.43;97226.19;5063069;28;20040;-66
2020/12/18 10:24:40;;;;;;;27.75;7.40;;;;;;;5.93;70.95;97227.34;5068244;28;20547;-66
2020/12/18 10:27:06;;;;;;;29.20;7.88;;;;;;;6.01;69.36;97230.34;5068706;28;20094;-67
2020/12/18 10:29:32;;;;;;;46.42;9.60;;;;;;;5.89;69.27;97232.44;5067507;28;20106;-66
2020/12/18 10:31:59;;;;;;;22.58;6.97;;;;;;;5.76;69.32;97225.66;5067453;28;20109;-65
2020/12/18 10:34:26;;;;;;;42.65;9.38;;;;;;;5.69;69.43;97237.78;5065550;28;20047;-66
2020/12/18 10:36:53;;;;;;;22.27;7.40;;;;;;;5.62;70.25;97240.72;5049271;28;20416;-66
2020/12/18 10:39:19;;;;;;;20.90;7.43;;;;;;;5.57;70.92;97231.81;5048676;28;20048;-66
2020/12/18 10:41:45;;;;;;;21.83;7.40;;;;;;;5.43;70.46;97221.50;5049506;28;20045;-66
2020/12/18 10:44:11;;;;;;;23.58;7.65;;;;;;;5.29;71.13;97214.94;5048510;28;20045;-66
2020/12/18 10:46:40;;;;;;;25.08;7.40;;;;;;;5.30;71.25;97215.75;5049105;28;20060;-67
2020/12/18 10:49:09;;;;;;;35.78;9.00;;;;;;;5.29;72.64;97216.84;5049394;28;20075;-67
2020/12/18 10:51:38;;;;;;;29.20;7.95;;;;;;;5.27;73.02;97214.38;5049049;28;20052;-66
2020/12/18 10:54:04;;;;;;;33.65;8.85;;;;;;;5.23;72.33;97210.59;5047392;28;20053;-66
2020/12/18 10:56:30;;;;;;;26.75;7.72;;;;;;;5.21;72.54;97207.31;5048702;28;20091;-67
2020/12/18 10:58:56;;;;;;;28.35;7.43;;;;;;;5.20;72.71;97208.41;5049270;28;20053;-67
2020/12/18 11:01:23;;;;;;;24.30;8.07;;;;;;;5.17;72.18;97206.25;5048488;28;20075;-66
2020/12/18 11:03:49;;;;;;;29.48;8.35;;;;;;;5.12;73.54;97208.91;5048430;28;20076;-66
2020/12/18 11:06:16;;;;;;;31.65;8.60;;;;;;;5.12;74.42;97208.91;5047789;28;20099;-66
2020/12/18 11:08:42;;;;;;;31.33;7.78;;;;;;;5.07;73.69;97212.41;5048629;28;20045;-66
2020/12/18 11:11:12;;;;;;;24.38;7.65;;;;;;;5.07;74.24;97207.00;5048436;28;20052;-67
2020/12/18 11:13:38;;;;;;;25.70;7.78;;;;;;;5.12;74.07;97209.72;5048756;28;20045;-66
2020/12/18 11:16:04;;;;;;;27.17;8.20;;;;;;;5.18;73.54;97211.38;5054254;28;20044;-67
2020/12/18 11:18:33;;;;;;;21.20;7.63;;;;;;;5.26;74.59;97207.34;5070787;28;20097;-67
2020/12/18 11:21:00;;;;;;;33.50;8.50;;;;;;;5.26;73.44;97209.25;5055305;28;20684;-67
2020/12/18 11:23:27;;;;;;;25.20;7.63;;;;;;;5.23;73.23;97208.69;5051668;28;20041;-66
2020/12/18 11:25:53;;;;;;;30.27;8.50;;;;;;;5.19;73.41;97204.91;5052297;28;20052;-67
2020/12/18 11:28:19;;;;;;;28.00;7.70;;;;;;;5.19;73.07;97204.09;5051785;28;20049;-67
2020/12/18 11:30:45;;;;;;;28.00;8.25;;;;;;;5.13;72.86;97205.16;5052265;28;20048;-67
2020/12/18 11:33:11;;;;;;;24.52;8.02;;;;;;;5.12;72.81;97198.13;5064433;28;20048;-66
2020/12/18 11:35:37;;;;;;;25.50;8.25;;;;;;;5.09;72.19;97198.63;5072281;28;20050;-66